Time;durP1;ratioP1;P1;durP2;ratioP2;P2;SDS_P1;SDS_P2;PMS_P1;PMS_P2;Temp;Humidity;BMP_temperature;BMP_pressure;BME280_temperature;BME280_humidity;BME280_pressure;Samples;Min_cycle;Max_cycle;Signal;HPM_P1;HPM_P2
2023/01/23 00:00:56;;;;;;;19.15;9.57;;;3.70;99.90;;;;;;5014426;28;20042;-70
2023/01/23 00:03:21;;;;;;;16.55;9.23;;;3.70;99.90;;;;;;5012278;28;20052;-70
2023/01/23 00:06:00;;;;;;;15.52;7.40;;;3.60;99.90;;;;;;5014027;28;20053;-70
2023/01/23 00:08:26;;;;;;;12.32;7.72;;;3.60;99.90;;;;;;5014036;28;20052;-70
2023/01/23 00:10:52;;;;;;;13.57;7.03;;;3.50;99.90;;;;;;5013846;28;20037;-70
2023/01/23 00:13:17;;;;;;;12.52;6.35;;;3.60;99.90;;;;;;5013351;28;20496;-70
2023/01/23 00:15:43;;;;;;;11.05;7.13;;;3.60;99.90;;;;;;5013871;28;20129;-70
2023/01/23 00:18:08;;;;;;;13.88;7.20;;;3.40;99.90;;;;;;5012658;28;20049;-70
2023/01/23 00:20:36;;;;;;;14.98;6.82;;;3.60;99.90;;;;;;5013841;28;20042;-70
2023/01/23 00:23:02;;;;;;;12.70;7.45;;;3.50;99.90;;;;;;5012156;28;20029;-70
2023/01/23 00:25:28;;;;;;;11.63;6.57;;;3.60;99.90;;;;;;5012183;28;20045;-70
2023/01/23 00:27:53;;;;;;;9.45;5.72;;;3.50;99.90;;;;;;5012511;28;20046;-70
2023/01/23 00:30:19;;;;;;;15.77;7.20;;;3.60;99.90;;;;;;5013483;28;20048;-70
2023/01/23 00:32:44;;;;;;;9.80;6.15;;;3.50;99.90;;;;;;5011572;28;20046;-70
2023/01/23 00:35:10;;;;;;;11.50;7.22;;;3.40;99.90;;;;;;5013639;28;20092;-70
2023/01/23 00:37:36;;;;;;;16.77;9.02;;;3.40;99.90;;;;;;5012188;28;20041;-70
2023/01/23 00:40:01;;;;;;;19.25;9.02;;;3.50;99.90;;;;;;5013796;28;20085;-70
2023/01/23 00:42:27;;;;;;;17.77;9.48;;;3.40;99.90;;;;;;5011567;28;20042;-70
2023/01/23 00:44:52;;;;;;;15.00;7.53;;;3.50;99.90;;;;;;5013484;28;20216;-70
2023/01/23 00:47:18;;;;;;;16.48;7.03;;;3.50;99.90;;;;;;5013635;28;20045;-70
2023/01/23 00:49:43;;;;;;;12.15;6.35;;;3.70;99.90;;;;;;5013938;28;20057;-70
2023/01/23 00:52:09;;;;;;;12.13;6.05;;;3.60;99.90;;;;;;5011976;28;20042;-70
2023/01/23 00:54:37;;;;;;;11.85;5.75;;;3.70;99.90;;;;;;5011271;28;20120;-70
2023/01/23 00:57:03;;;;;;;9.38;6.15;;;3.60;99.90;;;;;;5011821;28;20131;-70
2023/01/23 00:59:28;;;;;;;8.68;6.43;;;3.70;99.90;;;;;;5013186;28;20042;-70
2023/01/23 01:01:54;;;;;;;12.55;6.53;;;3.70;99.90;;;;;;5012024;28;20500;-70
2023/01/23 01:04:19;;;;;;;13.93;6.93;;;3.70;99.90;;;;;;5011120;28;20603;-70
2023/01/23 01:06:45;;;;;;;15.73;6.68;;;3.70;99.90;;;;;;5011565;28;20125;-70
2023/01/23 01:09:10;;;;;;;12.32;5.57;;;3.80;99.90;;;;;;5012738;28;20512;-70
2023/01/23 01:11:36;;;;;;;10.38;5.38;;;3.70;99.90;;;;;;5011709;28;20139;-70
2023/01/23 01:14:02;;;;;;;15.23;6.95;;;3.70;99.90;;;;;;5012144;28;20085;-70
2023/01/23 01:16:28;;;;;;;10.05;5.95;;;3.60;99.90;;;;;;5012521;28;20045;-70
2023/01/23 01:18:54;;;;;;;12.70;5.70;;;3.80;99.90;;;;;;5011519;28;20030;-70
2023/01/23 01:21:20;;;;;;;12.40;6.20;;;3.80;99.90;;;;;;5012642;28;20041;-70
2023/01/23 01:23:45;;;;;;;12.18;5.90;;;3.60;99.90;;;;;;5011765;28;20045;-70
2023/01/23 01:26:11;;;;;;;14.90;6.03;;;3.70;99.90;;;;;;5012797;28;20038;-70
2023/01/23 01:28:39;;;;;;;14.52;6.35;;;3.80;99.90;;;;;;4994990;28;20538;-70
2023/01/23 01:31:14;;;;;;;12.43;6.38;;;3.70;99.90;;;;;;5012712;28;20503;-70
2023/01/23 01:33:42;;;;;;;11.77;5.85;;;3.60;99.90;;;;;;5011924;28;20124;-70
2023/01/23 01:36:16;;;;;;;11.05;6.35;;;3.60;99.90;;;;;;5012145;28;20038;-71
2023/01/23 01:38:42;;;;;;;14.68;8.60;;;3.60;99.90;;;;;;5011450;28;20496;-70
2023/01/23 01:41:09;;;;;;;14.90;7.35;;;3.60;99.90;;;;;;5011113;28;20496;-70
2023/01/23 01:43:35;;;;;;;12.60;7.22;;;3.70;99.90;;;;;;5010368;28;20042;-70
2023/01/23 01:46:12;;;;;;;10.85;6.60;;;3.50;99.90;;;;;;5011010;28;20041;-70
2023/01/23 01:48:55;;;;;;;10.48;6.05;;;3.50;99.90;;;;;;5012139;28;20050;-70
2023/01/23 01:51:38;;;;;;;11.73;6.65;;;3.70;99.90;;;;;;5010985;28;20057;-70
2023/01/23 01:54:09;;;;;;;15.57;9.93;;;3.60;99.90;;;;;;5010026;28;20324;-70
2023/01/23 01:57:12;;;;;;;9.68;6.55;;;3.70;99.90;;;;;;5011030;28;20411;-70
2023/01/23 01:59:58;;;;;;;16.02;8.02;;;3.60;99.90;;;;;;4994526;28;20084;-70
2023/01/23 02:02:26;;;;;;;15.00;8.43;;;3.50;99.90;;;;;;5010349;28;20085;-70
2023/01/23 02:05:00;;;;;;;12.23;7.95;;;3.70;99.90;;;;;;5012054;28;20041;-70
2023/01/23 02:07:39;;;;;;;11.18;7.25;;;3.70;99.90;;;;;;5010535;28;20072;-70
2023/01/23 02:10:07;;;;;;;11.88;6.95;;;3.60;99.90;;;;;;5010744;28;20121;-70
2023/01/23 02:12:34;;;;;;;12.23;6.65;;;3.60;99.90;;;;;;5011267;28;20037;-71
2023/01/23 02:15:04;;;;;;;10.45;6.75;;;3.60;99.90;;;;;;5011819;28;20048;-70
2023/01/23 02:17:30;;;;;;;12.85;7.30;;;3.60;99.90;;;;;;5010405;28;20139;-70
2023/01/23 02:20:13;;;;;;;11.10;7.90;;;3.70;99.90;;;;;;5011793;28;20044;-70
2023/01/23 02:22:49;;;;;;;12.65;6.97;;;3.70;99.90;;;;;;5009874;28;20500;-70
2023/01/23 02:25:35;;;;;;;13.32;8.07;;;3.70;99.90;;;;;;5011923;28;20052;-70
2023/01/23 02:28:01;;;;;;;16.58;8.10;;;3.70;99.90;;;;;;4994265;28;20103;-70
2023/01/23 02:30:27;;;;;;;11.75;7.32;;;3.60;99.90;;;;;;5010497;28;20120;-70
2023/01/23 02:32:52;;;;;;;9.07;6.82;;;3.50;99.90;;;;;;5010952;28;20042;-70
2023/01/23 02:35:25;;;;;;;14.38;7.53;;;3.60;99.90;;;;;;4994063;28;20077;-70
2023/01/23 02:37:54;;;;;;;19.37;8.10;;;3.60;99.90;;;;;;5011832;28;20449;-70
2023/01/23 02:40:29;;;;;;;13.68;8.30;;;3.70;99.90;;;;;;5010245;28;20045;-70
2023/01/23 02:42:55;;;;;;;13.65;7.95;;;3.70;99.90;;;;;;5010839;28;20037;-70
2023/01/23 02:45:21;;;;;;;17.00;8.93;;;3.70;99.90;;;;;;5010625;28;20057;-70
2023/01/23 02:47:46;;;;;;;16.25;8.82;;;3.50;99.90;;;;;;5014204;28;20042;-70
2023/01/23 02:50:12;;;;;;;14.23;8.18;;;3.60;99.90;;;;;;5015413;28;20124;-70
2023/01/23 02:52:38;;;;;;;16.10;8.98;;;3.60;99.90;;;;;;5013679;28;20041;-70
2023/01/23 02:55:03;;;;;;;18.40;8.77;;;3.50;99.90;;;;;;5015244;28;20034;-70
2023/01/23 02:57:29;;;;;;;13.88;8.77;;;3.60;99.90;;;;;;5013886;28;20085;-70
2023/01/23 03:02:39;;;;;;;12.90;8.98;;;3.60;99.90;;;;;;5014517;28;20052;-70
2023/01/23 03:05:05;;;;;;;13.57;8.75;;;3.70;99.90;;;;;;5015243;28;20414;-70
2023/01/23 03:07:30;;;;;;;13.80;9.02;;;3.60;99.90;;;;;;5015144;28;20041;-70
2023/01/23 03:09:56;;;;;;;16.88;8.82;;;3.70;99.90;;;;;;5014906;28;20527;-70
2023/01/23 03:12:21;;;;;;;15.73;9.90;;;3.60;99.90;;;;;;5014122;28;20037;-70
2023/01/23 03:14:48;;;;;;;16.92;9.48;;;3.60;99.90;;;;;;5013584;28;20124;-70
2023/01/23 03:17:14;;;;;;;14.88;7.88;;;3.70;99.90;;;;;;5053764;22;20149;-71
2023/01/23 03:19:40;;;;;;;16.88;9.93;;;3.60;99.90;;;;;;5054884;28;20040;-71
2023/01/23 03:22:06;;;;;;;16.20;8.77;;;3.50;99.90;;;;;;5054711;28;20087;-71
2023/01/23 03:24:33;;;;;;;15.75;9.48;;;3.40;99.90;;;;;;5053843;28;20124;-71
2023/01/23 03:26:58;;;;;;;20.10;9.80;;;3.60;99.90;;;;;;5053540;28;20045;-71
2023/01/23 03:32:10;;;;;;;15.50;9.13;;;3.60;99.90;;;;;;5054754;28;20104;-71
2023/01/23 03:34:36;;;;;;;15.30;8.80;;;3.50;99.90;;;;;;5053981;28;20041;-71
2023/01/23 03:37:03;;;;;;;15.65;8.88;;;3.60;99.90;;;;;;5053116;28;20407;-71
2023/01/23 03:42:13;;;;;;;14.70;8.95;;;3.50;99.90;;;;;;5054264;28;20041;-71
2023/01/23 03:44:38;;;;;;;15.45;9.13;;;3.40;99.90;;;;;;5052689;28;20396;-71
2023/01/23 03:47:04;;;;;;;12.15;8.38;;;3.40;99.90;;;;;;5054337;28;20315;-71
2023/01/23 03:49:30;;;;;;;13.98;9.18;;;3.40;99.90;;;;;;5053098;28;20533;-72
2023/01/23 03:51:56;;;;;;;16.48;8.30;;;3.40;99.90;;;;;;5053074;28;20102;-71
2023/01/23 03:54:22;;;;;;;15.73;8.57;;;3.40;99.90;;;;;;5053390;28;20041;-71
2023/01/23 03:56:47;;;;;;;17.08;9.30;;;3.40;99.90;;;;;;5054022;28;20410;-71
2023/01/23 03:59:13;;;;;;;17.52;8.38;;;3.40;99.90;;;;;;5052636;28;20446;-71
2023/01/23 04:01:38;;;;;;;21.90;10.00;;;3.60;99.90;;;;;;5053919;28;20048;-71
2023/01/23 04:04:04;;;;;;;12.98;7.72;;;3.50;99.90;;;;;;5053047;28;20548;-71
2023/01/23 04:06:30;;;;;;;13.25;8.52;;;3.50;99.90;;;;;;5053700;28;20047;-71
2023/01/23 04:08:57;;;;;;;12.43;8.00;;;3.60;99.90;;;;;;5053960;28;20040;-71
2023/01/23 04:11:23;;;;;;;12.20;8.18;;;3.50;99.90;;;;;;5052519;28;20047;-71
2023/01/23 04:13:49;;;;;;;14.27;8.43;;;3.40;99.90;;;;;;5053239;28;20037;-71
2023/01/23 04:16:15;;;;;;;15.00;8.20;;;3.50;99.90;;;;;;5053395;28;20095;-69
2023/01/23 04:18:40;;;;;;;16.55;8.77;;;3.40;99.90;;;;;;5053578;28;20052;-72
2023/01/23 04:21:06;;;;;;;13.52;7.65;;;3.40;99.90;;;;;;5052276;28;20118;-71
2023/01/23 04:23:32;;;;;;;13.50;7.40;;;3.50;99.90;;;;;;5052686;28;20036;-69
2023/01/23 04:25:57;;;;;;;11.40;7.05;;;3.50;99.90;;;;;;5053578;28;20041;-69
2023/01/23 04:28:23;;;;;;;13.38;8.32;;;3.50;99.90;;;;;;5053373;28;20037;-69
2023/01/23 04:30:50;;;;;;;13.57;8.18;;;3.30;99.90;;;;;;5053348;28;20418;-69
2023/01/23 04:33:16;;;;;;;14.98;7.60;;;3.40;99.90;;;;;;5051979;28;20033;-69
2023/01/23 04:35:50;;;;;;;13.85;8.68;;;3.50;99.90;;;;;;5053393;28;20052;-69
2023/01/23 04:38:15;;;;;;;14.95;7.57;;;3.50;99.90;;;;;;5053150;28;20040;-70
2023/01/23 04:40:41;;;;;;;14.10;7.32;;;3.50;99.90;;;;;;5053233;28;20093;-69
2023/01/23 04:43:07;;;;;;;17.58;8.55;;;3.50;99.90;;;;;;5050983;28;20063;-69
2023/01/23 04:45:33;;;;;;;11.60;7.20;;;3.40;99.90;;;;;;5053060;28;20435;-69
2023/01/23 04:47:58;;;;;;;13.32;7.47;;;3.40;99.90;;;;;;5051615;28;20041;-69
2023/01/23 04:50:24;;;;;;;14.05;8.13;;;3.60;99.90;;;;;;5052949;28;20041;-69
2023/01/23 04:52:49;;;;;;;24.60;7.72;;;3.50;99.90;;;;;;5052160;28;20048;-69
2023/01/23 04:55:15;;;;;;;11.38;6.72;;;3.60;99.90;;;;;;5051126;28;20128;-69
2023/01/23 04:57:41;;;;;;;11.88;7.63;;;3.50;99.90;;;;;;5051493;28;20040;-69
2023/01/23 05:00:07;;;;;;;11.43;6.78;;;3.50;99.90;;;;;;5051467;28;20036;-69
2023/01/23 05:02:32;;;;;;;15.15;7.35;;;3.40;99.90;;;;;;5051920;28;20041;-69
2023/01/23 05:04:58;;;;;;;13.20;8.85;;;3.40;99.90;;;;;;5051386;28;20051;-69
2023/01/23 05:07:23;;;;;;;14.38;7.80;;;3.50;99.90;;;;;;5052486;28;20123;-69
2023/01/23 05:09:49;;;;;;;12.63;6.80;;;3.50;99.90;;;;;;5052284;28;20064;-69
2023/01/23 05:12:14;;;;;;;12.25;6.60;;;3.40;99.90;;;;;;5051005;28;20433;-69
2023/01/23 05:14:40;;;;;;;10.57;6.97;;;3.50;99.90;;;;;;5051960;28;20052;-69
2023/01/23 05:17:06;;;;;;;11.35;7.60;;;3.40;99.90;;;;;;5052211;28;20040;-69
2023/01/23 05:19:32;;;;;;;14.35;9.18;;;3.40;99.90;;;;;;5052422;28;20045;-69
2023/01/23 05:21:57;;;;;;;13.25;6.95;;;3.50;99.90;;;;;;5052453;28;20045;-69
2023/01/23 05:24:23;;;;;;;12.98;6.97;;;3.50;99.90;;;;;;5050558;28;20051;-69
2023/01/23 05:26:48;;;;;;;15.52;8.00;;;3.50;99.90;;;;;;5052296;28;20041;-69
2023/01/23 05:29:14;;;;;;;13.73;7.25;;;3.40;99.90;;;;;;5052249;28;20041;-69
2023/01/23 05:31:39;;;;;;;13.63;7.18;;;3.30;99.90;;;;;;5051972;28;20387;-71
2023/01/23 05:34:05;;;;;;;15.68;7.57;;;3.40;99.90;;;;;;5051402;28;20041;-69
2023/01/23 05:36:30;;;;;;;13.10;6.90;;;3.40;99.90;;;;;;5052106;28;20047;-71
2023/01/23 05:38:56;;;;;;;10.75;7.07;;;3.40;99.90;;;;;;5052036;28;20123;-69
2023/01/23 05:41:22;;;;;;;12.55;7.72;;;3.40;99.90;;;;;;5051902;28;20037;-71
2023/01/23 05:43:48;;;;;;;20.05;8.48;;;3.50;99.90;;;;;;5051317;28;20048;-71
2023/01/23 05:46:14;;;;;;;12.75;7.18;;;3.30;99.90;;;;;;5050570;28;20041;-71
2023/01/23 05:48:40;;;;;;;15.13;8.10;;;3.30;99.90;;;;;;5052115;28;20107;-69
2023/01/23 05:51:06;;;;;;;13.13;7.68;;;3.50;99.90;;;;;;5051767;28;20039;-69
2023/01/23 05:53:31;;;;;;;11.63;7.55;;;3.30;99.90;;;;;;5051255;28;20086;-69
2023/01/23 05:55:57;;;;;;;11.10;7.18;;;3.30;99.90;;;;;;5051913;28;20549;-69
2023/01/23 05:58:22;;;;;;;16.23;9.68;;;3.40;99.90;;;;;;5051470;28;20037;-69
2023/01/23 06:00:48;;;;;;;12.48;8.27;;;3.30;99.90;;;;;;5051645;28;20045;-72
2023/01/23 06:03:13;;;;;;;11.90;7.28;;;3.40;99.90;;;;;;5049838;28;20072;-71
2023/01/23 06:05:40;;;;;;;15.80;8.57;;;3.30;99.90;;;;;;5051948;28;20045;-71
2023/01/23 06:08:06;;;;;;;21.92;8.38;;;3.20;99.90;;;;;;5051620;28;20041;-69
2023/01/23 06:10:31;;;;;;;10.20;7.30;;;3.30;99.90;;;;;;5050560;28;20376;-71
2023/01/23 06:12:57;;;;;;;14.00;7.32;;;3.20;99.90;;;;;;5050826;28;20064;-69
2023/01/23 06:15:23;;;;;;;11.18;7.68;;;3.40;99.90;;;;;;5033584;28;20044;-71
2023/01/23 06:17:48;;;;;;;19.73;8.07;;;3.20;99.90;;;;;;5051347;28;20063;-71
2023/01/23 06:20:14;;;;;;;13.20;8.45;;;3.20;99.90;;;;;;5050106;28;20037;-69
2023/01/23 06:22:40;;;;;;;12.05;7.57;;;3.30;99.90;;;;;;5048361;28;20033;-69
2023/01/23 06:25:05;;;;;;;11.25;7.78;;;3.20;99.90;;;;;;5050187;28;20458;-71
2023/01/23 06:27:31;;;;;;;19.35;8.40;;;3.10;99.90;;;;;;5051113;28;20044;-69
2023/01/23 06:29:57;;;;;;;14.68;8.07;;;3.20;99.90;;;;;;5051192;28;20049;-69
2023/01/23 06:32:22;;;;;;;13.95;8.15;;;3.30;99.90;;;;;;5049049;28;20537;-69
2023/01/23 06:34:48;;;;;;;13.43;7.72;;;3.20;99.90;;;;;;5051045;28;20044;-69
2023/01/23 06:37:14;;;;;;;12.45;7.18;;;3.10;99.90;;;;;;5050161;28;20395;-69
2023/01/23 06:39:40;;;;;;;12.13;7.63;;;3.30;99.90;;;;;;5051246;28;20037;-71
2023/01/23 06:42:08;;;;;;;16.95;8.80;;;3.20;99.90;;;;;;5051246;28;20068;-71
2023/01/23 06:44:35;;;;;;;10.88;7.93;;;3.40;99.90;;;;;;5049175;28;20052;-71
2023/01/23 06:47:01;;;;;;;13.02;7.80;;;3.20;99.90;;;;;;5051114;28;20530;-69
2023/01/23 06:49:27;;;;;;;11.70;7.85;;;3.40;99.90;;;;;;5050238;28;20077;-71
2023/01/23 06:51:52;;;;;;;14.10;8.88;;;3.30;99.90;;;;;;5051334;28;20622;-71
2023/01/23 06:54:18;;;;;;;14.63;7.72;;;3.20;99.90;;;;;;5049122;28;20216;-71
2023/01/23 06:56:44;;;;;;;14.95;7.95;;;3.20;99.90;;;;;;5050796;28;20494;-74
2023/01/23 06:59:09;;;;;;;16.42;8.65;;;3.30;99.90;;;;;;5033163;28;20495;-74
2023/01/23 07:01:35;;;;;;;16.85;8.93;;;3.30;99.90;;;;;;5051436;28;20037;-74
2023/01/23 07:04:00;;;;;;;18.17;8.82;;;3.40;99.90;;;;;;5049022;28;20037;-74
2023/01/23 07:06:26;;;;;;;15.77;9.05;;;3.20;99.90;;;;;;5049709;28;20084;-74
2023/01/23 07:08:51;;;;;;;17.52;9.35;;;3.20;99.90;;;;;;5051088;28;20040;-74
2023/01/23 07:11:17;;;;;;;14.50;9.05;;;3.30;99.90;;;;;;5049773;28;20559;-74
2023/01/23 07:13:42;;;;;;;14.05;8.40;;;3.30;99.90;;;;;;5048979;28;20051;-74
2023/01/23 07:16:08;;;;;;;15.10;8.50;;;3.30;99.90;;;;;;5049579;28;20052;-74
2023/01/23 07:18:34;;;;;;;13.38;8.98;;;3.30;99.90;;;;;;5033293;28;20115;-74
2023/01/23 07:21:03;;;;;;;13.95;8.13;;;3.40;99.90;;;;;;5049903;28;20029;-74
2023/01/23 07:23:29;;;;;;;14.95;7.85;;;3.20;99.90;;;;;;5032692;28;20040;-76
2023/01/23 07:26:03;;;;;;;20.30;9.65;;;3.20;99.90;;;;;;5049722;28;20055;-74
2023/01/23 07:28:29;;;;;;;18.73;8.98;;;3.30;99.90;;;;;;5049746;28;20045;-74
2023/01/23 07:30:57;;;;;;;12.82;8.15;;;3.30;99.90;;;;;;5049618;28;20033;-74
2023/01/23 07:33:22;;;;;;;12.68;7.95;;;3.20;99.90;;;;;;5051059;28;20462;-74
2023/01/23 07:35:48;;;;;;;14.23;8.23;;;3.20;99.90;;;;;;5053154;28;20044;-74
2023/01/23 07:38:13;;;;;;;16.02;8.93;;;3.30;99.90;;;;;;5053184;28;20037;-75
2023/01/23 07:40:41;;;;;;;15.35;7.90;;;3.30;99.90;;;;;;5053347;28;20052;-74
2023/01/23 07:43:07;;;;;;;14.85;8.90;;;3.20;99.90;;;;;;5052572;28;20402;-74
2023/01/23 07:45:33;;;;;;;13.35;8.20;;;3.30;99.90;;;;;;5054392;28;20040;-74
2023/01/23 07:47:58;;;;;;;14.90;8.68;;;3.40;99.90;;;;;;5054061;28;20571;-75
2023/01/23 07:50:24;;;;;;;15.13;8.63;;;3.20;99.90;;;;;;5052777;28;20037;-74
2023/01/23 07:52:49;;;;;;;13.93;8.38;;;3.20;99.90;;;;;;5052041;28;20037;-74
2023/01/23 07:55:15;;;;;;;12.43;7.90;;;3.30;99.90;;;;;;5036170;28;20037;-74
2023/01/23 07:57:41;;;;;;;15.35;8.38;;;3.20;99.90;;;;;;5053131;28;20170;-74
2023/01/23 08:00:08;;;;;;;12.30;7.05;;;3.30;99.90;;;;;;5036665;28;20045;-74
2023/01/23 08:02:33;;;;;;;12.95;7.53;;;3.20;99.90;;;;;;5052961;28;20048;-76
2023/01/23 08:04:59;;;;;;;11.68;7.70;;;3.30;99.90;;;;;;5036047;28;20044;-76
2023/01/23 08:07:24;;;;;;;12.10;8.18;;;3.40;99.90;;;;;;5052833;28;20033;-76
2023/01/23 08:09:50;;;;;;;15.07;8.32;;;3.30;99.90;;;;;;5052680;28;20043;-76
2023/01/23 08:12:15;;;;;;;14.07;7.70;;;3.40;99.90;;;;;;5052406;28;20045;-76
2023/01/23 08:14:41;;;;;;;13.77;7.85;;;3.40;99.90;;;;;;5052597;28;20403;-74
2023/01/23 08:17:06;;;;;;;13.80;6.95;;;3.30;99.90;;;;;;5052212;28;20625;-74
2023/01/23 08:19:32;;;;;;;10.93;7.32;;;3.20;99.90;;;;;;5052330;28;20076;-74
2023/01/23 08:21:57;;;;;;;11.27;7.28;;;3.30;99.90;;;;;;5052495;28;20045;-74
2023/01/23 08:24:23;;;;;;;14.52;7.38;;;3.30;99.90;;;;;;5051486;28;20041;-74
2023/01/23 08:26:48;;;;;;;12.75;6.40;;;3.30;99.90;;;;;;5053340;28;20033;-74
2023/01/23 08:29:14;;;;;;;11.85;6.82;;;3.30;99.90;;;;;;5052220;28;20080;-74
2023/01/23 08:31:40;;;;;;;10.13;6.65;;;3.20;99.90;;;;;;5035510;28;20398;-74
2023/01/23 08:34:05;;;;;;;9.93;5.88;;;3.40;99.90;;;;;;5051534;28;20400;-74
2023/01/23 08:36:31;;;;;;;8.05;5.70;;;3.30;99.90;;;;;;5052137;28;20052;-74
2023/01/23 08:38:57;;;;;;;7.35;5.85;;;3.30;99.90;;;;;;5035475;28;20075;-74
2023/01/23 08:41:23;;;;;;;12.50;6.50;;;3.30;99.90;;;;;;5051667;28;20120;-74
2023/01/23 08:43:49;;;;;;;10.13;6.50;;;3.40;99.90;;;;;;5050845;28;20182;-74
2023/01/23 08:46:15;;;;;;;7.25;5.72;;;3.30;99.90;;;;;;5034841;28;20037;-74
2023/01/23 08:48:40;;;;;;;8.68;6.15;;;3.50;99.90;;;;;;5053098;28;20036;-74
2023/01/23 08:51:10;;;;;;;9.23;5.63;;;3.50;99.90;;;;;;5052934;28;20036;-74
2023/01/23 08:53:36;;;;;;;9.57;4.90;;;3.50;99.90;;;;;;5051116;28;20100;-74
2023/01/23 08:56:14;;;;;;;8.18;5.68;;;3.40;99.90;;;;;;5068240;28;20040;-74
2023/01/23 08:58:40;;;;;;;9.80;5.80;;;3.50;99.90;;;;;;5051572;28;20396;-74
2023/01/23 09:01:13;;;;;;;8.57;4.80;;;3.60;99.90;;;;;;5035163;28;20043;-74
2023/01/23 09:03:39;;;;;;;9.23;5.10;;;3.60;99.90;;;;;;5050958;28;20044;-74
2023/01/23 09:06:05;;;;;;;7.95;5.10;;;3.50;99.90;;;;;;5051522;28;20047;-74
2023/01/23 09:08:31;;;;;;;7.38;5.05;;;3.60;99.90;;;;;;5051701;28;20037;-74
2023/01/23 09:11:05;;;;;;;8.43;5.30;;;3.60;99.90;;;;;;5051461;28;20041;-74
2023/01/23 09:13:31;;;;;;;8.15;5.57;;;3.60;99.90;;;;;;5051726;28;20515;-74
2023/01/23 09:15:57;;;;;;;8.45;6.25;;;3.70;99.90;;;;;;5051169;28;20044;-74
2023/01/23 09:18:24;;;;;;;10.70;6.80;;;3.70;99.90;;;;;;5087359;23;20053;-72
2023/01/23 09:20:50;;;;;;;9.32;6.20;;;3.80;99.90;;;;;;5071227;28;20063;-72
2023/01/23 09:23:15;;;;;;;8.05;5.60;;;3.70;99.90;;;;;;5070166;28;20068;-72
2023/01/23 09:25:41;;;;;;;8.80;6.28;;;3.70;99.90;;;;;;5071118;28;20486;-72
2023/01/23 09:28:06;;;;;;;8.82;6.10;;;3.70;99.90;;;;;;5085616;28;20040;-72
2023/01/23 09:30:32;;;;;;;9.60;7.00;;;3.70;99.90;;;;;;5091095;28;20042;-72
2023/01/23 09:32:58;;;;;;;9.15;6.40;;;3.80;99.90;;;;;;5090592;28;20043;-72
2023/01/23 09:35:23;;;;;;;9.68;6.22;;;3.70;99.90;;;;;;5091078;28;20517;-72
2023/01/23 09:37:59;;;;;;;7.20;5.68;;;3.70;99.90;;;;;;5090943;28;20067;-72
2023/01/23 09:40:28;;;;;;;10.40;6.47;;;3.70;99.90;;;;;;5092445;28;20039;-72
2023/01/23 09:42:57;;;;;;;10.40;6.93;;;3.80;99.90;;;;;;5073304;28;20040;-72
2023/01/23 09:45:26;;;;;;;10.80;6.93;;;3.90;99.90;;;;;;5074023;28;20044;-72
2023/01/23 09:48:25;;;;;;;11.70;6.90;;;3.80;99.90;;;;;;5090768;28;20039;-72
2023/01/23 09:50:55;;;;;;;11.75;6.53;;;3.70;99.90;;;;;;5074094;28;20044;-72
2023/01/23 09:53:25;;;;;;;13.60;7.88;;;3.70;99.90;;;;;;5089961;28;20036;-72
2023/01/23 09:56:03;;;;;;;11.38;6.55;;;3.70;99.90;;;;;;5090193;28;20050;-72
2023/01/23 09:58:49;;;;;;;13.65;7.00;;;3.80;99.90;;;;;;5091818;28;20439;-72
2023/01/23 10:01:15;;;;;;;11.15;8.13;;;3.70;99.90;;;;;;5090639;28;20115;-72
2023/01/23 10:03:41;;;;;;;9.52;6.95;;;3.80;99.90;;;;;;5089894;28;20074;-72
2023/01/23 10:06:23;;;;;;;11.23;7.25;;;3.90;99.90;;;;;;5092219;28;20516;-72
2023/01/23 10:09:05;;;;;;;11.70;7.32;;;3.90;99.90;;;;;;5090472;28;20421;-72
2023/01/23 10:11:59;;;;;;;12.07;7.35;;;3.90;99.90;;;;;;5090539;28;20056;-72
2023/01/23 10:14:46;;;;;;;12.20;7.95;;;3.80;99.90;;;;;;5089569;28;20501;-71
2023/01/23 10:17:44;;;;;;;14.45;7.93;;;3.80;99.90;;;;;;5090116;28;20040;-71
2023/01/23 10:20:31;;;;;;;12.98;8.18;;;3.80;99.90;;;;;;5073629;28;20040;-71
2023/01/23 10:23:04;;;;;;;13.00;8.25;;;3.70;99.90;;;;;;5089631;28;20548;-71
2023/01/23 10:25:33;;;;;;;13.02;7.95;;;3.80;99.90;;;;;;5090543;28;20440;-71
2023/01/23 10:28:15;;;;;;;11.80;8.57;;;3.80;99.90;;;;;;5090254;28;20082;-71
2023/01/23 10:30:45;;;;;;;17.67;8.73;;;3.90;99.90;;;;;;5090252;28;20036;-71
2023/01/23 10:33:14;;;;;;;13.55;8.63;;;3.80;99.90;;;;;;5072802;28;20454;-71
2023/01/23 10:36:02;;;;;;;14.90;8.85;;;4.00;99.90;;;;;;5073263;28;20502;-71
2023/01/23 10:38:45;;;;;;;15.32;9.40;;;3.80;99.90;;;;;;5090439;28;20092;-71
2023/01/23 10:41:13;;;;;;;15.55;9.32;;;3.80;99.90;;;;;;5073682;28;20036;-70
2023/01/23 10:43:43;;;;;;;17.42;9.93;;;3.70;99.90;;;;;;5072782;28;20462;-71
2023/01/23 10:46:12;;;;;;;18.63;10.40;;;3.90;99.90;;;;;;5073598;28;20063;-70
2023/01/23 10:48:59;;;;;;;14.75;9.27;;;3.90;99.90;;;;;;5090081;28;20485;-71
2023/01/23 10:51:35;;;;;;;15.70;10.18;;;3.90;99.90;;;;;;5090140;28;20040;-71
2023/01/23 10:54:19;;;;;;;16.30;9.60;;;3.90;99.90;;;;;;5089648;28;20488;-71
2023/01/23 10:56:52;;;;;;;16.92;9.43;;;4.00;99.90;;;;;;5090224;28;20143;-70
2023/01/23 10:59:39;;;;;;;14.85;9.88;;;3.90;99.90;;;;;;5089974;28;20036;-71
2023/01/23 11:02:14;;;;;;;18.65;11.15;;;4.00;99.90;;;;;;5073184;28;20093;-71
2023/01/23 11:04:42;;;;;;;15.40;9.48;;;4.00;99.90;;;;;;5072671;28;20048;-72
2023/01/23 11:07:21;;;;;;;16.08;9.68;;;4.10;99.90;;;;;;5089971;28;20048;-71
2023/01/23 11:10:21;;;;;;;15.88;10.88;;;4.10;99.90;;;;;;5077015;28;20043;-71
2023/01/23 11:12:53;;;;;;;17.85;10.50;;;4.00;99.90;;;;;;5039145;28;20099;-71
2023/01/23 11:15:25;;;;;;;18.35;9.55;;;4.10;99.90;;;;;;5093533;28;20051;-71
2023/01/23 11:17:53;;;;;;;18.03;10.70;;;4.00;99.90;;;;;;5093635;28;20040;-73
2023/01/23 11:20:37;;;;;;;15.00;9.57;;;4.20;99.90;;;;;;5093892;28;20032;-73
2023/01/23 11:23:11;;;;;;;15.50;9.82;;;4.10;99.90;;;;;;5092944;28;20067;-73
2023/01/23 11:25:43;;;;;;;17.85;10.00;;;4.00;99.90;;;;;;5093706;28;20048;-75
2023/01/23 11:28:29;;;;;;;20.50;10.52;;;4.20;99.90;;;;;;5093034;28;20040;-73
2023/01/23 11:31:07;;;;;;;16.10;9.90;;;4.20;99.90;;;;;;5093653;28;20063;-76
2023/01/23 11:33:51;;;;;;;16.08;9.18;;;4.30;99.90;;;;;;5092262;28;20413;-75
2023/01/23 11:36:17;;;;;;;16.20;8.95;;;4.40;99.90;;;;;;5066624;28;20040;-75
2023/01/23 11:38:53;;;;;;;17.65;10.07;;;4.30;99.90;;;;;;5093173;28;20498;-75
2023/01/23 11:41:27;;;;;;;18.88;10.27;;;4.40;99.90;;;;;;5093259;28;20093;-75
2023/01/23 11:43:52;;;;;;;18.27;10.30;;;4.40;99.90;;;;;;5089372;28;20075;-75
2023/01/23 11:46:33;;;;;;;15.45;10.00;;;4.50;99.90;;;;;;5073767;28;20067;-75
2023/01/23 11:49:20;;;;;;;15.32;10.15;;;4.60;99.90;;;;;;5056180;28;20459;-75
2023/01/23 11:51:48;;;;;;;16.52;10.40;;;4.50;99.90;;;;;;5063882;28;20046;-75
2023/01/23 11:54:17;;;;;;;17.63;9.60;;;4.40;99.90;;;;;;5071771;28;20084;-74
2023/01/23 11:57:00;;;;;;;15.77;9.68;;;4.40;99.90;;;;;;5072643;28;20127;-75
2023/01/23 11:59:50;;;;;;;14.48;9.30;;;4.50;99.90;;;;;;5056074;28;20130;-75
2023/01/23 12:02:46;;;;;;;16.20;9.38;;;4.50;99.90;;;;;;5072543;28;20502;-75
2023/01/23 12:05:23;;;;;;;16.30;9.82;;;4.60;99.90;;;;;;5072496;28;20135;-73
2023/01/23 12:08:00;;;;;;;12.70;8.18;;;4.60;99.90;;;;;;5072671;28;20049;-73
2023/01/23 12:10:36;;;;;;;12.05;8.55;;;4.60;99.90;;;;;;5055681;28;20101;-73
2023/01/23 12:13:20;;;;;;;17.75;9.73;;;4.60;99.90;;;;;;5071612;28;20123;-73
2023/01/23 12:16:05;;;;;;;15.60;9.45;;;4.70;99.90;;;;;;5074585;28;20071;-73
2023/01/23 12:18:50;;;;;;;16.88;9.57;;;4.60;99.90;;;;;;5071591;28;20037;-73
2023/01/23 12:21:18;;;;;;;15.93;10.68;;;4.60;99.90;;;;;;5071825;28;20042;-73
2023/01/23 12:24:26;;;;;;;15.40;9.55;;;4.60;99.90;;;;;;5071422;28;20079;-73
2023/01/23 12:27:04;;;;;;;18.30;9.80;;;4.70;99.90;;;;;;5071975;28;20517;-73
2023/01/23 12:29:43;;;;;;;14.82;8.98;;;4.60;99.90;;;;;;5055462;28;20045;-73
2023/01/23 12:32:27;;;;;;;11.55;9.20;;;4.60;99.90;;;;;;5072176;28;20044;-73
2023/01/23 12:35:13;;;;;;;15.75;10.75;;;4.60;99.90;;;;;;5055403;28;20517;-73
2023/01/23 12:38:08;;;;;;;16.27;10.27;;;4.70;99.90;;;;;;5021359;28;20045;-74
2023/01/23 12:40:49;;;;;;;14.07;9.27;;;4.60;99.90;;;;;;5071579;28;20037;-73
2023/01/23 12:43:32;;;;;;;13.60;9.00;;;4.60;99.90;;;;;;5079218;28;20029;-74
2023/01/23 12:46:23;;;;;;;16.13;8.45;;;4.60;99.90;;;;;;5055266;28;20513;-76
2023/01/23 12:48:52;;;;;;;15.57;8.70;;;4.70;99.90;;;;;;5071398;28;20048;-71
2023/01/23 12:51:23;;;;;;;15.30;9.13;;;4.60;99.90;;;;;;5070396;28;20056;-71
2023/01/23 12:53:55;;;;;;;13.00;9.63;;;4.50;99.90;;;;;;5070835;28;20040;-71
2023/01/23 12:56:34;;;;;;;14.18;9.18;;;4.50;99.90;;;;;;5072716;28;20530;-71
2023/01/23 12:59:06;;;;;;;13.02;8.88;;;4.40;99.90;;;;;;5072762;28;20418;-71
2023/01/23 13:01:58;;;;;;;13.68;8.73;;;4.60;99.90;;;;;;5071728;28;20040;-71
2023/01/23 13:05:05;;;;;;;14.80;8.68;;;4.50;99.90;;;;;;5070879;28;20435;-71
2023/01/23 13:07:57;;;;;;;16.42;9.00;;;4.50;99.90;;;;;;5071567;28;20147;-71
2023/01/23 13:11:39;;;;;;;16.42;9.68;;;4.50;99.90;;;;;;5071484;28;20041;-71